Huvudsida
METAR-TAF:

METAR-TAF

Flygplatser :

Caracas, Venezuela

latitud: 10-36N, longitud: 066-59W, höjd: 43 m

Aktuellt väderrapport

Denna rapport gjordes för 21 timmar och 55 minuter sedan, klockan 00:00 UTC
Vind 2 kt från ost
Temperatur 29°C
Fuktighet 70%
Tryck 1013 hPa
Sikt 10 km eller mer
Spridda moln på en höjd av 1600 ft

METAR: SVMI 210000Z 09002KT 9999 SCT016 29/23 Q1013

Tid: 17:55 (21:55 UTC)

Väderprognos

Denna rapport gjordes för 23 timmar och 55 minuter sedan, klockan 22:00 UTC
Prognos gäller från 21 kl. 00 UTC till 22 kl. 00 UTC
Vind 11 kt från ost
Sikt 10 km eller mer
Spridda moln på en höjd av 1600 ft
Blir
från 21 kl. 02 UTC till 21 kl. 06 UTC
Vind 2 kt från ost
Få moln på en höjd av 1300 ft
Spridda moln på en höjd av 2000 ft

TAF: SVMI 202200Z 2100/2200 09011KT 9999 SCT016 TX30/19Z TN24/09Z BECMG 2102/2106 09002KT FEW013 SCT020

Aktuella väderrapporter och prognoser från 4000 flygplatser (METAR- och TAF-rapporter).

De tillgängliga stationerna syns som gula och röda prickar på kartan.

För musen över prickarna för att se namnen på stationerna.

Klicka sedan för att få väderrapporter och prognoser.

För att ändra kartan: Klicka på de gröna knapparna med ett svart kors på för att zooma in; den gröna knappen med ett streck på för att zooma ut; eller på de gröna pilarna för angränsande kartor.


METAR-TAF: